createdAt,value
2022-08-11T00:00:22.650Z,52.14
2022-08-11T00:01:22.612Z,52.04
2022-08-11T00:02:22.724Z,52.27
2022-08-11T00:03:22.648Z,52.27
2022-08-11T00:04:23.581Z,52.47
2022-08-11T00:05:22.561Z,52.57
2022-08-11T00:06:22.552Z,52.37
2022-08-11T00:07:22.552Z,52.27
2022-08-11T00:08:22.523Z,52.37
2022-08-11T00:09:22.518Z,52.87
2022-08-11T00:10:22.502Z,52.77
2022-08-11T00:11:22.523Z,52.57
2022-08-11T00:12:22.474Z,52.87
2022-08-11T00:13:22.484Z,52.97
2022-08-11T00:14:22.456Z,53.00
2022-08-11T00:15:22.447Z,53.09
2022-08-11T00:16:22.475Z,52.89
2022-08-11T00:17:22.481Z,53.00
2022-08-11T00:18:22.415Z,53.39
2022-08-11T00:20:14.592Z,53.50
2022-08-11T00:20:23.406Z,53.50
2022-08-11T00:21:56.920Z,53.39
2022-08-11T00:22:23.376Z,53.52
2022-08-11T00:23:22.456Z,53.42
2022-08-11T00:24:22.355Z,53.62
2022-08-11T00:25:22.335Z,53.72
2022-08-11T00:26:22.327Z,53.82
2022-08-11T00:27:22.326Z,53.72
2022-08-11T00:28:22.338Z,53.72
2022-08-11T00:29:22.348Z,53.89
2022-08-11T00:30:22.308Z,53.82
2022-08-11T00:31:22.288Z,53.82
2022-08-11T00:32:22.279Z,53.82
2022-08-11T00:33:22.255Z,53.62
2022-08-11T00:34:23.334Z,53.42
2022-08-11T00:35:51.046Z,53.62
2022-08-11T00:36:25.569Z,54.02
2022-08-11T00:37:22.229Z,54.32
2022-08-11T00:38:22.209Z,54.32
2022-08-11T00:39:27.274Z,54.22
2022-08-11T00:40:23.204Z,54.22
2022-08-11T00:41:22.161Z,54.12
2022-08-11T00:42:22.161Z,54.12
2022-08-11T00:43:22.145Z,54.05
2022-08-11T00:44:22.142Z,54.05
2022-08-11T00:45:22.133Z,54.25
2022-08-11T00:46:22.113Z,54.05
2022-08-11T00:47:22.096Z,54.15
2022-08-11T00:48:22.094Z,54.05
2022-08-11T00:49:22.073Z,54.15
2022-08-11T00:50:22.091Z,54.15
2022-08-11T00:51:22.085Z,53.95
2022-08-11T00:52:22.068Z,53.95
2022-08-11T00:53:22.053Z,53.95
2022-08-11T00:54:22.056Z,53.95
2022-08-11T00:55:22.013Z,53.95
2022-08-11T00:56:22.028Z,54.05
2022-08-11T00:57:37.257Z,53.95
2022-08-11T00:58:22.983Z,53.95
2022-08-11T00:59:34.050Z,53.95
2022-08-11T01:00:22.967Z,53.95
2022-08-11T01:01:21.999Z,53.95
2022-08-11T01:02:21.938Z,54.05
2022-08-11T01:03:22.936Z,54.05
2022-08-11T01:04:21.927Z,53.95
2022-08-11T01:05:21.927Z,53.87
2022-08-11T01:06:21.907Z,53.87
2022-08-11T01:08:00.991Z,53.77
2022-08-11T01:08:22.881Z,53.77
2022-08-11T01:09:22.207Z,53.67
2022-08-11T01:10:21.855Z,53.97
2022-08-11T01:11:21.885Z,54.27
2022-08-11T01:12:21.870Z,54.38
2022-08-11T01:13:21.855Z,54.58
2022-08-11T01:14:26.116Z,54.58
2022-08-11T01:15:22.819Z,54.68
2022-08-11T01:16:21.811Z,54.77
2022-08-11T01:17:27.999Z,54.68
2022-08-11T01:18:21.770Z,54.88
2022-08-11T01:19:22.761Z,54.97
2022-08-11T01:20:46.990Z,54.97
2022-08-11T01:21:22.763Z,54.97
2022-08-11T01:22:21.722Z,55.38
2022-08-11T01:23:21.717Z,55.78
2022-08-11T01:24:21.710Z,55.68
2022-08-11T01:25:21.700Z,55.60
2022-08-11T01:26:21.681Z,55.91
2022-08-11T01:27:21.675Z,56.01
2022-08-11T01:28:21.663Z,56.10
2022-08-11T01:29:21.653Z,56.10
2022-08-11T01:30:21.662Z,56.01
2022-08-11T01:31:23.687Z,56.21
2022-08-11T01:32:21.614Z,56.41
2022-08-11T01:33:21.635Z,56.41
2022-08-11T01:34:21.605Z,56.41
2022-08-11T01:35:21.596Z,56.54
2022-08-11T01:36:21.565Z,56.63
2022-08-11T01:37:21.594Z,56.43
2022-08-11T01:38:21.576Z,56.54
2022-08-11T01:39:21.613Z,56.93
2022-08-11T01:40:21.555Z,56.84
2022-08-11T01:41:21.518Z,56.84
2022-08-11T01:42:21.508Z,56.74
2022-08-11T01:43:21.497Z,56.93
2022-08-11T01:44:21.481Z,56.93
2022-08-11T01:45:21.506Z,57.24
2022-08-11T01:46:21.483Z,57.24
2022-08-11T01:47:21.459Z,57.24
2022-08-11T01:48:21.439Z,57.24
2022-08-11T01:50:06.590Z,57.34
2022-08-11T01:50:22.422Z,57.14
2022-08-11T01:51:21.481Z,57.37
2022-08-11T01:52:33.302Z,57.26
2022-08-11T01:53:22.390Z,57.37
2022-08-11T01:54:21.378Z,57.37
2022-08-11T01:55:21.370Z,57.37
2022-08-11T01:56:21.382Z,57.46
2022-08-11T01:57:21.354Z,57.77
2022-08-11T01:58:21.332Z,57.67
2022-08-11T01:59:22.330Z,57.37
2022-08-11T02:00:21.323Z,57.37
2022-08-11T02:01:21.395Z,57.37
2022-08-11T02:02:21.767Z,57.37
2022-08-11T02:03:21.283Z,57.37
2022-08-11T02:04:21.302Z,57.37
2022-08-11T02:05:21.264Z,57.26
2022-08-11T02:06:21.246Z,57.26
2022-08-11T02:07:21.262Z,57.37
2022-08-11T02:08:21.223Z,57.57
2022-08-11T02:09:22.254Z,57.37
2022-08-11T02:10:21.275Z,57.57
2022-08-11T02:11:21.215Z,57.57
2022-08-11T02:12:21.185Z,57.46
2022-08-11T02:13:30.313Z,57.26
2022-08-11T02:14:22.179Z,57.37
2022-08-11T02:15:21.154Z,57.37
2022-08-11T02:16:21.144Z,57.57
2022-08-11T02:17:21.134Z,57.70
2022-08-11T02:18:21.116Z,57.59
2022-08-11T02:19:21.127Z,57.79
2022-08-11T02:20:21.095Z,57.79
2022-08-11T02:21:21.098Z,57.70
2022-08-11T02:22:21.075Z,57.59
2022-08-11T02:23:59.598Z,57.50
2022-08-11T02:24:22.066Z,57.50
2022-08-11T02:25:21.044Z,57.79
2022-08-11T02:26:21.029Z,58.00
2022-08-11T02:27:21.031Z,57.90
2022-08-11T02:28:21.009Z,58.29
2022-08-11T02:29:21.023Z,58.29
2022-08-11T02:30:20.999Z,58.20
2022-08-11T02:32:17.163Z,58.29
2022-08-11T02:32:28.717Z,58.53
2022-08-11T02:33:21.961Z,58.62
2022-08-11T02:34:20.952Z,58.62
2022-08-11T02:35:20.931Z,58.53
2022-08-11T02:36:20.929Z,58.42
2022-08-11T02:37:23.793Z,58.53
2022-08-11T02:38:20.910Z,58.62
2022-08-11T02:39:20.943Z,58.62
2022-08-11T02:40:20.885Z,58.83
2022-08-11T02:41:20.982Z,58.73
2022-08-11T02:42:32.122Z,59.06
2022-08-11T02:43:21.872Z,59.16
2022-08-11T02:44:20.833Z,59.36
2022-08-11T02:45:20.846Z,59.66
2022-08-11T02:46:20.802Z,59.66
2022-08-11T02:47:20.794Z,59.66
2022-08-11T02:48:20.805Z,59.56
2022-08-11T02:49:20.784Z,59.76
2022-08-11T02:50:20.768Z,59.86
2022-08-11T02:51:21.911Z,59.86
2022-08-11T02:52:20.754Z,59.86
2022-08-11T02:53:20.773Z,59.86
2022-08-11T02:54:20.747Z,59.76
2022-08-11T02:55:48.870Z,60.16
2022-08-11T02:56:21.728Z,60.16
2022-08-11T02:57:20.717Z,60.09
2022-08-11T02:58:26.931Z,59.99
2022-08-11T02:59:21.697Z,59.99
2022-08-11T03:00:20.674Z,60.09
2022-08-11T03:01:20.721Z,60.29
2022-08-11T03:02:20.638Z,60.19
2022-08-11T03:03:20.628Z,60.39
2022-08-11T03:04:20.667Z,60.49
2022-08-11T03:05:20.612Z,60.69
2022-08-11T03:06:20.638Z,60.69
2022-08-11T03:07:29.058Z,60.80
2022-08-11T03:08:21.578Z,60.89
2022-08-11T03:09:20.569Z,61.00
2022-08-11T03:10:20.549Z,61.03
2022-08-11T03:11:20.560Z,61.03
2022-08-11T03:12:20.537Z,61.13
2022-08-11T03:13:20.522Z,61.13
2022-08-11T03:14:20.512Z,61.23
2022-08-11T03:15:20.505Z,61.13
2022-08-11T03:16:20.502Z,61.13
2022-08-11T03:17:20.481Z,61.13
2022-08-11T03:18:20.481Z,61.13
2022-08-11T03:19:20.873Z,61.23
2022-08-11T03:20:20.452Z,61.23
2022-08-11T03:21:20.441Z,61.13
2022-08-11T03:22:20.421Z,61.13
2022-08-11T03:23:20.672Z,60.93
2022-08-11T03:24:20.404Z,60.93
2022-08-11T03:25:20.405Z,60.93
2022-08-11T03:26:20.393Z,60.93
2022-08-11T03:27:20.363Z,60.93
2022-08-11T03:28:20.363Z,61.33
2022-08-11T03:29:25.160Z,61.33
2022-08-11T03:30:21.355Z,61.43
2022-08-11T03:31:20.324Z,61.53
2022-08-11T03:32:20.305Z,61.93
2022-08-11T03:33:20.307Z,61.83
2022-08-11T03:34:20.305Z,61.66
2022-08-11T03:35:21.657Z,61.76
2022-08-11T03:36:20.267Z,62.06
2022-08-11T03:37:20.257Z,62.16
2022-08-11T03:38:20.248Z,62.26
2022-08-11T03:39:21.254Z,62.37
2022-08-11T03:40:20.276Z,62.37
2022-08-11T03:42:02.490Z,62.37
2022-08-11T03:42:21.201Z,62.57
2022-08-11T03:43:20.205Z,62.57
2022-08-11T03:44:20.180Z,62.46
2022-08-11T03:45:20.177Z,62.37
2022-08-11T03:46:20.159Z,62.26
2022-08-11T03:47:20.147Z,62.26
2022-08-11T03:48:20.172Z,62.46
2022-08-11T03:49:20.141Z,62.46
2022-08-11T03:50:20.113Z,62.37
2022-08-11T03:51:20.108Z,62.37
2022-08-11T03:52:20.112Z,62.57
2022-08-11T03:53:20.134Z,62.90
2022-08-11T03:54:20.081Z,63.10
2022-08-11T03:55:20.072Z,63.10
2022-08-11T03:56:20.081Z,63.10
2022-08-11T03:57:20.048Z,63.10
2022-08-11T03:58:20.061Z,63.10
2022-08-11T03:59:20.021Z,63.20
2022-08-11T04:00:20.003Z,63.20
2022-08-11T04:01:20.072Z,63.10
2022-08-11T04:02:19.998Z,63.10
2022-08-11T04:03:20.055Z,63.10
2022-08-11T04:04:20.024Z,63.30
2022-08-11T04:05:19.978Z,63.30
2022-08-11T04:06:19.941Z,63.40
2022-08-11T04:07:19.942Z,63.60
2022-08-11T04:08:19.944Z,63.60
2022-08-11T04:09:19.984Z,63.70
2022-08-11T04:10:19.915Z,63.60
2022-08-11T04:11:19.884Z,63.60
2022-08-11T04:12:35.581Z,63.40
2022-08-11T04:13:20.905Z,63.40
2022-08-11T04:14:19.892Z,63.50
2022-08-11T04:15:19.854Z,63.60
2022-08-11T04:16:19.856Z,63.81
2022-08-11T04:17:19.835Z,63.81
2022-08-11T04:18:19.927Z,63.90
2022-08-11T04:19:19.837Z,64.04
2022-08-11T04:20:19.797Z,64.04
2022-08-11T04:21:19.815Z,64.04
2022-08-11T04:22:20.853Z,64.04
2022-08-11T04:24:33.041Z,64.04
2022-08-11T04:24:38.518Z,64.04
2022-08-11T04:25:20.828Z,64.14
2022-08-11T04:26:19.989Z,64.14
2022-08-11T04:27:19.796Z,64.14
2022-08-11T04:28:28.868Z,64.24
2022-08-11T04:29:20.757Z,64.24
2022-08-11T04:30:20.429Z,64.14
2022-08-11T04:31:44.177Z,64.04
2022-08-11T04:32:20.719Z,64.14
2022-08-11T04:33:19.761Z,63.93
2022-08-11T04:34:19.767Z,64.04
2022-08-11T04:35:19.749Z,64.41
2022-08-11T04:36:19.631Z,64.21
2022-08-11T04:37:19.721Z,64.04
2022-08-11T04:38:19.592Z,64.24
2022-08-11T04:39:19.710Z,63.93
2022-08-11T04:40:19.674Z,64.14
2022-08-11T04:41:19.603Z,63.84
2022-08-11T04:42:19.562Z,64.14
2022-08-11T04:43:19.546Z,64.14
2022-08-11T04:44:19.547Z,64.04
2022-08-11T04:45:19.541Z,64.24
2022-08-11T04:46:19.663Z,64.24
2022-08-11T04:47:20.217Z,64.04
2022-08-11T04:48:19.533Z,64.34
2022-08-11T04:49:25.651Z,64.44
2022-08-11T04:50:20.493Z,64.51
2022-08-11T04:51:19.487Z,64.31
2022-08-11T04:52:19.446Z,64.51
2022-08-11T04:53:19.444Z,64.21
2022-08-11T04:54:19.461Z,64.41
2022-08-11T04:55:19.411Z,64.54
2022-08-11T04:56:19.403Z,64.75
2022-08-11T04:57:19.427Z,64.84
2022-08-11T04:58:19.426Z,64.61
2022-08-11T04:59:19.418Z,64.54
2022-08-11T05:00:19.364Z,64.64
2022-08-11T05:01:19.427Z,64.72
2022-08-11T05:02:19.439Z,65.01
2022-08-11T05:03:19.396Z,64.92
2022-08-11T05:04:19.337Z,64.92
2022-08-11T05:05:19.298Z,64.92
2022-08-11T05:06:19.287Z,65.32
2022-08-11T05:07:19.279Z,65.62
2022-08-11T05:08:23.417Z,65.42
2022-08-11T05:09:19.288Z,65.42
2022-08-11T05:10:19.249Z,65.42
2022-08-11T05:11:19.241Z,65.22
2022-08-11T05:12:19.232Z,65.01
2022-08-11T05:13:19.211Z,64.92
2022-08-11T05:14:19.210Z,64.92
2022-08-11T05:15:19.197Z,64.81
2022-08-11T05:16:19.201Z,65.12
2022-08-11T05:17:19.171Z,64.81
2022-08-11T05:18:19.162Z,64.81
2022-08-11T05:19:19.148Z,64.72
2022-08-11T05:20:19.208Z,64.72
2022-08-11T05:21:19.150Z,65.01
2022-08-11T05:22:19.161Z,64.81
2022-08-11T05:23:19.155Z,64.72
2022-08-11T05:24:19.112Z,64.61
2022-08-11T05:26:45.330Z,64.51
2022-08-11T05:26:46.055Z,64.21
2022-08-11T05:27:20.083Z,64.31
2022-08-11T05:28:19.054Z,64.11
2022-08-11T05:29:20.154Z,64.01
2022-08-11T05:30:19.043Z,64.01
2022-08-11T05:31:19.024Z,63.90
2022-08-11T05:32:19.033Z,64.21
2022-08-11T05:33:18.994Z,64.11
2022-08-11T05:34:18.995Z,64.11
2022-08-11T05:36:00.756Z,64.11
2022-08-11T05:36:19.996Z,63.87
2022-08-11T05:37:26.722Z,63.78
2022-08-11T05:38:19.945Z,63.57
2022-08-11T05:39:19.023Z,63.57
2022-08-11T05:40:18.965Z,63.67
2022-08-11T05:41:18.913Z,63.57
2022-08-11T05:42:21.358Z,63.47
2022-08-11T05:43:19.918Z,63.57
2022-08-11T05:44:20.261Z,63.67
2022-08-11T05:45:18.868Z,63.67
2022-08-11T05:46:18.866Z,63.78
2022-08-11T05:47:18.867Z,63.57
2022-08-11T05:48:18.868Z,63.47
2022-08-11T05:49:18.826Z,63.47
2022-08-11T05:50:18.842Z,63.37
2022-08-11T05:51:25.834Z,63.37
2022-08-11T05:52:19.806Z,63.57
2022-08-11T05:53:19.798Z,63.34
2022-08-11T05:54:28.775Z,63.24
2022-08-11T05:55:19.779Z,63.24
2022-08-11T05:56:18.770Z,63.24
2022-08-11T05:57:48.553Z,62.84
2022-08-11T05:58:19.768Z,63.04
2022-08-11T05:59:18.856Z,62.94
2022-08-11T06:00:18.801Z,63.04
2022-08-11T06:01:18.859Z,63.14
2022-08-11T06:02:18.783Z,63.24
2022-08-11T06:03:18.673Z,63.45
2022-08-11T06:04:18.692Z,63.45
2022-08-11T06:05:19.447Z,63.24
2022-08-11T06:06:18.743Z,63.11
2022-08-11T06:07:20.724Z,63.11
2022-08-11T06:08:18.621Z,63.01
2022-08-11T06:09:18.625Z,63.01
2022-08-11T06:10:18.604Z,62.81
2022-08-11T06:11:18.614Z,62.71
2022-08-11T06:12:19.576Z,62.81
2022-08-11T06:13:18.566Z,62.91
2022-08-11T06:14:18.555Z,62.81
2022-08-11T06:15:18.562Z,62.71
2022-08-11T06:16:18.595Z,62.71
2022-08-11T06:17:18.538Z,62.41
2022-08-11T06:18:18.516Z,62.41
2022-08-11T06:19:18.495Z,62.51
2022-08-11T06:20:18.495Z,62.61
2022-08-11T06:21:18.525Z,62.71
2022-08-11T06:22:18.477Z,62.78
2022-08-11T06:23:18.519Z,62.68
2022-08-11T06:24:18.494Z,62.68
2022-08-11T06:25:18.486Z,62.88
2022-08-11T06:26:18.427Z,62.88
2022-08-11T06:27:18.455Z,63.08
2022-08-11T06:28:20.797Z,62.88
2022-08-11T06:29:18.417Z,62.98
2022-08-11T06:30:18.402Z,63.08
2022-08-11T06:31:18.385Z,62.88
2022-08-11T06:32:18.359Z,62.65
2022-08-11T06:33:18.346Z,62.55
2022-08-11T06:34:27.232Z,62.45
2022-08-11T06:35:19.369Z,62.45
2022-08-11T06:36:18.338Z,62.15
2022-08-11T06:37:18.330Z,61.94
2022-08-11T06:38:18.300Z,61.85
2022-08-11T06:39:18.350Z,61.94
2022-08-11T06:40:18.271Z,61.85
2022-08-11T06:41:18.292Z,62.05
2022-08-11T06:42:18.251Z,61.91
2022-08-11T06:43:18.268Z,61.61
2022-08-11T06:44:18.252Z,61.61
2022-08-11T06:45:18.210Z,61.71
2022-08-11T06:46:28.244Z,61.82
2022-08-11T06:47:19.501Z,61.71
2022-08-11T06:48:18.183Z,61.61
2022-08-11T06:49:18.203Z,61.71
2022-08-11T06:50:18.162Z,61.61
2022-08-11T06:51:18.143Z,61.71
2022-08-11T06:52:34.672Z,61.21
2022-08-11T06:53:19.123Z,61.18
2022-08-11T06:54:18.166Z,61.29
2022-08-11T06:55:56.835Z,61.29
2022-08-11T06:56:19.094Z,61.18
2022-08-11T06:57:33.408Z,61.08
2022-08-11T06:58:19.104Z,60.88
2022-08-11T06:59:18.105Z,60.98
2022-08-11T07:00:18.143Z,60.88
2022-08-11T07:01:18.220Z,60.78
2022-08-11T07:02:18.122Z,60.88
2022-08-11T07:03:18.052Z,60.85
2022-08-11T07:04:18.011Z,60.55
2022-08-11T07:05:18.007Z,60.65
2022-08-11T07:06:18.048Z,60.75
2022-08-11T07:07:18.010Z,60.65
2022-08-11T07:08:33.273Z,60.55
2022-08-11T07:09:18.990Z,60.55
2022-08-11T07:10:17.966Z,60.45
2022-08-11T07:11:17.932Z,60.35
2022-08-11T07:12:17.931Z,60.32
2022-08-11T07:13:43.162Z,60.42
2022-08-11T07:14:18.958Z,60.72
2022-08-11T07:15:17.889Z,60.52
2022-08-11T07:16:17.894Z,60.52
2022-08-11T07:17:18.867Z,60.49
2022-08-11T07:18:17.860Z,60.19
2022-08-11T07:19:17.841Z,59.69
2022-08-11T07:20:17.887Z,59.69
2022-08-11T07:22:00.922Z,59.69
2022-08-11T07:22:18.819Z,59.66
2022-08-11T07:23:17.814Z,59.46
2022-08-11T07:24:17.797Z,59.26
2022-08-11T07:25:17.802Z,59.36
2022-08-11T07:26:17.783Z,59.03
2022-08-11T07:27:17.823Z,58.73
2022-08-11T07:28:17.784Z,58.63
2022-08-11T07:29:17.733Z,58.73
2022-08-11T07:30:17.765Z,58.61
2022-08-11T07:31:17.724Z,58.50
2022-08-11T07:32:17.712Z,58.11
2022-08-11T07:34:05.634Z,57.80
2022-08-11T07:34:18.757Z,57.80
2022-08-11T07:35:17.732Z,58.00
2022-08-11T07:36:17.684Z,58.18
2022-08-11T07:37:17.741Z,57.78
2022-08-11T07:38:22.182Z,57.57
2022-08-11T07:39:18.681Z,57.78
2022-08-11T07:40:17.664Z,57.48
2022-08-11T07:41:17.615Z,57.48
2022-08-11T07:42:17.607Z,57.55
2022-08-11T07:43:17.587Z,57.24
2022-08-11T07:44:17.696Z,57.15
2022-08-11T07:45:17.566Z,57.02
2022-08-11T07:46:17.627Z,56.72
2022-08-11T07:47:17.571Z,56.02
2022-08-11T07:48:17.567Z,55.82
2022-08-11T07:49:17.558Z,55.79
2022-08-11T07:50:17.519Z,56.09
2022-08-11T07:51:17.557Z,56.09
2022-08-11T07:52:17.559Z,55.89
2022-08-11T07:53:17.479Z,55.89
2022-08-11T07:54:17.586Z,55.79
2022-08-11T07:55:17.510Z,55.69
2022-08-11T07:56:17.470Z,55.89
2022-08-11T07:57:58.445Z,55.79
2022-08-11T07:58:19.816Z,55.66
2022-08-11T07:59:17.452Z,55.57
2022-08-11T08:00:17.411Z,55.77
2022-08-11T08:01:22.531Z,55.36
2022-08-11T08:02:20.162Z,55.54
2022-08-11T08:03:17.369Z,55.04
2022-08-11T08:04:17.363Z,54.84
2022-08-11T08:05:17.344Z,54.54
2022-08-11T08:06:35.578Z,54.84
2022-08-11T08:07:18.327Z,54.84
2022-08-11T08:08:17.458Z,54.94
2022-08-11T08:09:17.344Z,54.82
2022-08-11T08:10:17.314Z,54.32
2022-08-11T08:11:17.333Z,53.61
2022-08-11T08:12:17.279Z,53.52
2022-08-11T08:13:17.262Z,53.81
2022-08-11T08:14:17.256Z,54.32
2022-08-11T08:15:17.355Z,54.32
2022-08-11T08:16:17.235Z,53.99
2022-08-11T08:17:17.225Z,53.99
2022-08-11T08:18:26.000Z,53.99
2022-08-11T08:19:18.197Z,54.09
2022-08-11T08:20:17.207Z,53.79
2022-08-11T08:21:17.187Z,53.27
2022-08-11T08:22:37.938Z,53.27
2022-08-11T08:23:18.241Z,53.17
2022-08-11T08:24:17.148Z,52.94
2022-08-11T08:25:17.156Z,52.84
2022-08-11T08:26:17.159Z,52.74
2022-08-11T08:27:17.119Z,52.34
2022-08-11T08:28:17.115Z,52.34
2022-08-11T08:29:17.111Z,52.55
2022-08-11T08:30:17.084Z,52.64
2022-08-11T08:31:17.100Z,52.14
2022-08-11T08:32:17.060Z,52.34
2022-08-11T08:33:17.101Z,52.72
2022-08-11T08:34:17.039Z,52.22
2022-08-11T08:35:17.038Z,52.02
2022-08-11T08:36:17.069Z,51.92
2022-08-11T08:37:47.270Z,51.92
2022-08-11T08:38:18.559Z,51.52
2022-08-11T08:39:17.048Z,51.50
2022-08-11T08:40:16.974Z,51.50
2022-08-11T08:41:17.115Z,51.50
2022-08-11T08:42:16.953Z,51.40
2022-08-11T08:43:16.994Z,51.10
2022-08-11T08:45:17.953Z,51.50
2022-08-11T08:46:16.905Z,51.29
2022-08-11T08:47:42.939Z,50.68
2022-08-11T08:48:17.926Z,49.55
2022-08-11T08:49:16.894Z,49.26
2022-08-11T08:50:17.173Z,49.26
2022-08-11T08:51:16.867Z,49.26
2022-08-11T08:52:25.407Z,49.36
2022-08-11T08:53:17.827Z,49.23
2022-08-11T08:54:16.842Z,48.74
2022-08-11T08:55:16.843Z,48.34
2022-08-11T08:56:16.823Z,47.14
2022-08-11T08:57:16.807Z,47.34
2022-08-11T08:58:16.785Z,48.14
2022-08-11T08:59:16.788Z,46.95
2022-08-11T09:00:20.755Z,46.62
2022-08-11T09:01:17.851Z,46.72
2022-08-11T09:02:16.770Z,46.03
2022-08-11T09:03:39.916Z,46.41
2022-08-11T09:04:20.941Z,47.10
2022-08-11T09:05:16.750Z,45.41
2022-08-11T09:06:16.730Z,46.08
2022-08-11T09:07:16.704Z,45.49
2022-08-11T09:08:16.672Z,45.39
2022-08-11T09:09:16.671Z,44.89
2022-08-11T09:10:16.672Z,45.19
2022-08-11T09:11:16.712Z,44.59
2022-08-11T09:12:16.651Z,44.89
2022-08-11T09:13:17.623Z,44.29
2022-08-11T09:14:16.612Z,44.40
2022-08-11T09:15:19.772Z,44.99
2022-08-11T09:16:16.913Z,45.29
2022-08-11T09:17:16.613Z,45.79
2022-08-11T09:18:16.578Z,45.37
2022-08-11T09:19:16.590Z,45.17
2022-08-11T09:20:16.645Z,43.88
2022-08-11T09:21:46.387Z,43.88
2022-08-11T09:22:17.595Z,43.66
2022-08-11T09:24:07.798Z,42.96
2022-08-11T09:24:25.864Z,42.96
2022-08-11T09:25:17.556Z,42.94
2022-08-11T09:26:16.539Z,42.65
2022-08-11T09:27:16.487Z,43.24
2022-08-11T09:28:16.457Z,42.85
2022-08-11T09:29:16.449Z,42.94
2022-08-11T09:30:16.472Z,42.74
2022-08-11T09:31:16.465Z,41.85
2022-08-11T09:32:16.468Z,42.63
2022-08-11T09:33:16.426Z,42.52
2022-08-11T09:34:16.405Z,42.13
2022-08-11T09:35:16.387Z,41.83
2022-08-11T09:36:16.419Z,41.52
2022-08-11T09:37:53.581Z,41.31
2022-08-11T09:38:17.664Z,40.62
2022-08-11T09:39:16.388Z,41.22
2022-08-11T09:40:16.371Z,40.52
2022-08-11T09:41:16.356Z,40.62
2022-08-11T09:42:18.881Z,40.42
2022-08-11T09:43:17.303Z,41.10
2022-08-11T09:44:16.315Z,41.30
2022-08-11T09:45:16.285Z,41.30
2022-08-11T09:46:16.263Z,40.80
2022-08-11T09:47:16.266Z,41.10
2022-08-11T09:48:16.272Z,40.11
2022-08-11T09:49:16.233Z,40.11
2022-08-11T09:50:16.276Z,40.01
2022-08-11T09:51:16.229Z,40.60
2022-08-11T09:52:16.203Z,40.20
2022-08-11T09:53:36.594Z,40.01
2022-08-11T09:54:17.213Z,40.20
2022-08-11T09:55:16.167Z,40.11
2022-08-11T09:56:16.226Z,40.01
2022-08-11T09:57:16.156Z,39.71
2022-08-11T09:58:42.013Z,39.61
2022-08-11T09:59:17.147Z,39.71
2022-08-11T10:00:16.190Z,40.11
2022-08-11T10:01:16.199Z,39.81
2022-08-11T10:02:16.088Z,39.71
2022-08-11T10:03:16.079Z,39.81
2022-08-11T10:04:16.069Z,40.80
2022-08-11T10:05:16.162Z,39.99
2022-08-11T10:06:16.047Z,38.90
2022-08-11T10:07:16.039Z,39.00
2022-08-11T10:08:16.062Z,39.69
2022-08-11T10:09:16.037Z,39.10
2022-08-11T10:10:16.047Z,39.28
2022-08-11T10:11:16.011Z,39.48
2022-08-11T10:12:16.051Z,39.77
2022-08-11T10:14:03.732Z,39.37
2022-08-11T10:14:32.760Z,39.67
2022-08-11T10:15:16.981Z,40.25
2022-08-11T10:16:16.909Z,39.75
2022-08-11T10:17:15.991Z,39.36
2022-08-11T10:18:15.948Z,39.75
2022-08-11T10:19:15.922Z,39.16
2022-08-11T10:20:15.894Z,39.14
2022-08-11T10:21:15.945Z,39.14
2022-08-11T10:22:15.935Z,38.06
2022-08-11T10:23:15.874Z,37.05
2022-08-11T10:24:15.904Z,37.05
2022-08-11T10:25:20.010Z,37.34
2022-08-11T10:26:15.882Z,37.84
2022-08-11T10:27:15.826Z,37.94
2022-08-11T10:28:30.592Z,37.64
2022-08-11T10:29:17.041Z,37.05
2022-08-11T10:30:15.801Z,36.36
2022-08-11T10:31:16.457Z,37.64
2022-08-11T10:32:15.789Z,36.46
2022-08-11T10:33:36.462Z,36.95
2022-08-11T10:34:16.748Z,36.65
2022-08-11T10:35:16.038Z,36.65
2022-08-11T10:36:16.694Z,36.55
2022-08-11T10:37:15.742Z,35.37
2022-08-11T10:38:15.942Z,35.27
2022-08-11T10:39:15.736Z,35.96
2022-08-11T10:40:15.755Z,35.66
2022-08-11T10:41:15.741Z,36.65
2022-08-11T10:42:26.120Z,37.05
2022-08-11T10:44:01.935Z,37.32
2022-08-11T10:44:16.751Z,36.24
2022-08-11T10:45:15.707Z,35.94
2022-08-11T10:46:15.662Z,36.93
2022-08-11T10:47:15.613Z,36.63
2022-08-11T10:48:15.782Z,36.54
2022-08-11T10:49:15.597Z,36.42
2022-08-11T10:50:15.603Z,36.12
2022-08-11T10:51:15.614Z,36.61
2022-08-11T10:52:16.581Z,35.04
2022-08-11T10:53:15.555Z,37.13
2022-08-11T10:54:15.555Z,36.71
2022-08-11T10:55:15.553Z,36.02
2022-08-11T10:56:15.533Z,35.43
2022-08-11T10:57:15.547Z,35.73
2022-08-11T10:58:15.495Z,35.24
2022-08-11T10:59:15.580Z,35.73
2022-08-11T11:00:15.612Z,35.33
2022-08-11T11:01:15.494Z,35.52
2022-08-11T11:02:15.450Z,35.61
2022-08-11T11:03:23.711Z,35.81
2022-08-11T11:04:16.428Z,35.71
2022-08-11T11:05:15.438Z,35.71
2022-08-11T11:06:28.196Z,35.61
2022-08-11T11:07:16.460Z,35.61
2022-08-11T11:08:15.380Z,35.41
2022-08-11T11:09:15.384Z,35.71
2022-08-11T11:10:15.491Z,36.21
2022-08-11T11:11:18.370Z,35.91
2022-08-11T11:12:15.341Z,35.41
2022-08-11T11:13:15.402Z,35.10
2022-08-11T11:14:15.519Z,35.69
2022-08-11T11:15:17.495Z,35.30
2022-08-11T11:16:15.323Z,35.00
2022-08-11T11:17:15.305Z,35.50
2022-08-11T11:18:15.302Z,35.10
2022-08-11T11:19:15.272Z,34.51
2022-08-11T11:20:36.713Z,34.61
2022-08-11T11:21:16.285Z,34.81
2022-08-11T11:22:15.255Z,34.81
2022-08-11T11:23:15.235Z,35.40
2022-08-11T11:24:15.286Z,35.48
2022-08-11T11:25:15.239Z,35.77
2022-08-11T11:26:15.237Z,35.58
2022-08-11T11:27:15.236Z,35.97
2022-08-11T11:28:15.232Z,35.76
2022-08-11T11:29:15.220Z,34.77
2022-08-11T11:30:15.172Z,35.27
2022-08-11T11:31:15.737Z,34.87
2022-08-11T11:32:15.156Z,34.97
2022-08-11T11:33:15.138Z,35.46
2022-08-11T11:34:15.149Z,35.56
2022-08-11T11:35:15.101Z,35.15
2022-08-11T11:36:15.087Z,34.56
2022-08-11T11:37:15.119Z,34.56
2022-08-11T11:38:15.143Z,34.46
2022-08-11T11:39:15.337Z,34.75
2022-08-11T11:40:15.093Z,34.66
2022-08-11T11:41:15.032Z,33.86
2022-08-11T11:42:15.041Z,34.15
2022-08-11T11:43:15.023Z,34.05
2022-08-11T11:44:15.002Z,34.34
2022-08-11T11:45:23.942Z,34.15
2022-08-11T11:46:15.984Z,33.54
2022-08-11T11:47:15.033Z,33.44
2022-08-11T11:48:14.975Z,33.25
2022-08-11T11:49:17.001Z,34.03
2022-08-11T11:50:14.989Z,33.54
2022-08-11T11:51:14.974Z,33.43
2022-08-11T11:52:15.018Z,33.62
2022-08-11T11:53:14.927Z,33.53
2022-08-11T11:54:14.917Z,34.22
2022-08-11T11:55:14.929Z,33.72
2022-08-11T11:56:14.908Z,33.91
2022-08-11T11:57:14.868Z,33.22
2022-08-11T11:58:17.882Z,33.12
2022-08-11T11:59:14.912Z,32.62
2022-08-11T12:00:14.864Z,33.70
2022-08-11T12:01:14.870Z,33.31
2022-08-11T12:02:14.866Z,32.90
2022-08-11T12:03:14.845Z,33.00
2022-08-11T12:04:14.795Z,32.50
2022-08-11T12:05:14.829Z,32.30
2022-08-11T12:06:14.769Z,31.90
2022-08-11T12:07:14.816Z,31.61
2022-08-11T12:08:14.751Z,32.57
2022-08-11T12:09:15.454Z,32.38
2022-08-11T12:10:14.754Z,31.60
2022-08-11T12:11:14.744Z,31.99
2022-08-11T12:12:14.714Z,31.48
2022-08-11T12:13:14.723Z,31.09
2022-08-11T12:14:14.704Z,31.29
2022-08-11T12:15:14.736Z,31.37
2022-08-11T12:16:34.851Z,31.27
2022-08-11T12:17:15.708Z,30.87
2022-08-11T12:18:14.703Z,30.57
2022-08-11T12:19:14.718Z,30.85
2022-08-11T12:20:31.562Z,29.95
2022-08-11T12:21:15.617Z,29.95
2022-08-11T12:22:14.659Z,29.56
2022-08-11T12:23:14.838Z,30.04
2022-08-11T12:24:14.589Z,30.02
2022-08-11T12:25:14.860Z,29.61
2022-08-11T12:26:26.959Z,28.92
2022-08-11T12:27:17.650Z,28.30
2022-08-11T12:28:14.542Z,28.47
2022-08-11T12:29:14.541Z,27.66
2022-08-11T12:30:14.562Z,27.04
2022-08-11T12:31:14.559Z,26.22
2022-08-11T12:32:14.503Z,26.28
2022-08-11T12:33:14.493Z,24.60
2022-08-11T12:34:15.522Z,24.76
2022-08-11T12:35:14.583Z,23.93
2022-08-11T12:36:14.485Z,22.05
2022-08-11T12:37:14.464Z,22.12
2022-08-11T12:38:14.445Z,20.64
2022-08-11T12:39:24.179Z,20.61
2022-08-11T12:40:43.408Z,20.10
2022-08-11T12:41:16.369Z,19.98
2022-08-11T12:42:14.399Z,19.76
2022-08-11T12:43:21.673Z,18.40
2022-08-11T12:44:15.405Z,17.71
2022-08-11T12:45:21.969Z,17.69
2022-08-11T12:46:15.360Z,17.30
2022-08-11T12:47:14.359Z,17.47
2022-08-11T12:49:00.565Z,17.56
2022-08-11T12:49:15.339Z,16.98
2022-08-11T12:50:21.753Z,16.89
2022-08-11T12:51:15.321Z,17.07
2022-08-11T12:52:15.745Z,16.49
2022-08-11T12:53:14.329Z,16.58